ADDS METAR Data INFO
IDs: Format: Raw Decoded Include TAF

Data at: 0750 UTC 17 Oct 2017

KOZS 170735Z AUTO 15005KT 10SM CLR 06/02 A3029 RMK AO2
KOZS 170715Z AUTO 16005KT 10SM CLR 07/02 A3028 RMK AO2
KOZS 170655Z AUTO 15005KT 10SM CLR 07/03 A3028 RMK AO2
KOZS 170635Z AUTO 15006KT 10SM CLR 07/03 A3029 RMK AO2
KOZS 170615Z AUTO 16006KT 10SM CLR 06/03 A3029 RMK AO2
KOZS 170555Z AUTO 14004KT 10SM CLR 06/03 A3029 RMK AO2
KOZS 170535Z AUTO 17005KT 10SM CLR 06/03 A3029 RMK AO2
KOZS 170515Z AUTO 00000KT 10SM CLR 08/03 A3031 RMK AO2
KOZS 170455Z AUTO 18003KT 10SM CLR 07/03 A3030 RMK AO2
KOZS 170435Z AUTO 00000KT 10SM CLR 08/03 A3030 RMK AO2
KOZS 170415Z AUTO 16004KT 10SM CLR 07/03 A3031 RMK AO2
KOZS 170355Z AUTO 12005KT 10SM CLR 08/03 A3031 RMK AO2
KOZS 170335Z AUTO 00000KT 10SM CLR 08/03 A3031 RMK AO2
KOZS 170315Z AUTO 14005KT 10SM CLR 07/03 A3031 RMK AO2
KOZS 170255Z AUTO 16005KT 10SM CLR 08/04 A3031 RMK AO2
KOZS 170235Z AUTO 14005KT 10SM CLR 08/04 A3031 RMK AO2
KOZS 170215Z AUTO 00000KT 10SM CLR 11/03 A3031 RMK AO2
KOZS 170155Z AUTO 18003KT 10SM CLR 12/03 A3031 RMK AO2
KOZS 170135Z AUTO 15004KT 10SM CLR 10/04 A3031 RMK AO2
KOZS 170115Z AUTO 00000KT 10SM CLR 11/03 A3031 RMK AO2
KOZS 170055Z AUTO 00000KT 10SM CLR 12/03 A3030 RMK AO2
KOZS 170035Z AUTO 21003KT 10SM CLR 14/03 A3030 RMK AO2
KOZS 170015Z AUTO 23003KT 10SM CLR 14/04 A3029 RMK AO2
KOZS 162355Z AUTO 22003KT 10SM CLR 15/03 A3029 RMK AO2
KOZS 162335Z AUTO 00000KT 10SM CLR 16/03 A3029 RMK AO2
KOZS 162315Z AUTO 00000KT 10SM CLR 17/03 A3029 RMK AO2
KOZS 162255Z AUTO 00000KT 10SM CLR 17/01 A3029 RMK AO2
KOZS 162235Z AUTO 00000KT 10SM CLR 18/01 A3029 RMK AO2
KOZS 162215Z AUTO 23003KT 10SM CLR 18/01 A3030 RMK AO2
KOZS 162155Z AUTO 21003KT 10SM CLR 18/01 A3031 RMK AO2
KOZS 162135Z AUTO 28004KT 10SM CLR 18/01 A3031 RMK AO2
KOZS 162115Z AUTO 27004KT 10SM CLR 18/01 A3032 RMK AO2
KOZS 162055Z AUTO 27004KT 10SM CLR 18/00 A3032 RMK AO2
KOZS 162035Z AUTO 24004KT 10SM CLR 18/00 A3033 RMK AO2
KOZS 162015Z AUTO 00000KT 10SM CLR 18/01 A3034 RMK AO2
KOZS 161955Z AUTO 27005KT 10SM CLR 18/01 A3034 RMK AO2
KOZS 161935Z AUTO 30004KT 10SM CLR 18/01 A3035 RMK AO2
KOZS 161915Z AUTO 19004KT 10SM CLR 18/00 A3036 RMK AO2
KOZS 161855Z AUTO 26005KT 10SM CLR 18/01 A3037 RMK AO2
KOZS 161835Z AUTO 00000KT 10SM CLR 17/01 A3038 RMK AO2
KOZS 161815Z AUTO 00000KT 10SM CLR 17/00 A3039 RMK AO2
KOZS 161755Z AUTO 00000KT 10SM CLR 17/00 A3040 RMK AO2
KOZS 161735Z AUTO 00000KT 10SM CLR 16/00 A3041 RMK AO2
KOZS 161715Z AUTO 00000KT 10SM CLR 16/01 A3042 RMK AO2
KOZS 161655Z AUTO 00000KT 10SM CLR 16/02 A3043 RMK AO2
KOZS 161635Z AUTO 00000KT 10SM CLR 15/01 A3043 RMK AO2
KOZS 161615Z AUTO 00000KT 10SM CLR 15/02 A3044 RMK AO2
KOZS 161555Z AUTO 18003KT 10SM CLR 14/02 A3044 RMK AO2
KOZS 161535Z AUTO 00000KT 10SM CLR 13/03 A3044 RMK AO2
KOZS 161515Z AUTO 24003KT 10SM CLR 12/05 A3044 RMK AO2
KOZS 161455Z AUTO 24003KT 10SM CLR 11/05 A3043 RMK AO2
KOZS 161435Z AUTO 21004KT 10SM CLR 10/06 A3043 RMK AO2
KOZS 161415Z AUTO 24003KT 10SM CLR 09/06 A3043 RMK AO2
KOZS 161355Z AUTO 23003KT 10SM CLR 08/05 A3042 RMK AO2
KOZS 161335Z AUTO 00000KT 10SM CLR 07/05 A3042 RMK AO2
KOZS 161315Z AUTO 00000KT 10SM CLR 05/04 A3041 RMK AO2
KOZS 161255Z AUTO 00000KT 10SM CLR 05/04 A3041 RMK AO2
KOZS 161235Z AUTO 22003KT 10SM CLR 05/04 A3041 RMK AO2
KOZS 161215Z AUTO 00000KT 10SM CLR 05/03 A3040 RMK AO2
KOZS 161155Z AUTO 00000KT 10SM CLR 05/03 A3040 RMK AO2
KOZS 161135Z AUTO 24003KT 10SM CLR 05/03 A3040 RMK AO2
KOZS 161115Z AUTO 24003KT 10SM CLR 05/03 A3040 RMK AO2
KOZS 161055Z AUTO 00000KT 10SM CLR 05/04 A3040 RMK AO2
KOZS 161035Z AUTO 00000KT 10SM CLR 03/03 A3039 RMK AO2
KOZS 161015Z AUTO 24003KT 10SM CLR 05/04 A3039 RMK AO2
KOZS 160955Z AUTO 24004KT 10SM CLR 05/04 A3039 RMK AO2
KOZS 160935Z AUTO 23004KT 10SM CLR 05/05 A3039 RMK AO2
KOZS 160915Z AUTO 23003KT 10SM CLR 05/05 A3038 RMK AO2
KOZS 160855Z AUTO 00000KT 10SM CLR 05/03 A3038 RMK AO2
KOZS 160835Z AUTO 24003KT 10SM CLR 06/05 A3037 RMK AO2
KOZS 160815Z AUTO 26003KT 10SM CLR 06/05 A3038 RMK AO2
KOZS 160755Z AUTO 26004KT 10SM CLR 07/04 A3038 RMK AO2
KOZS 160735Z AUTO 28004KT 10SM CLR 07/05 A3038 RMK AO2
KOZS 160715Z AUTO 29004KT 10SM CLR 07/05 A3038 RMK AO2
KOZS 160655Z AUTO 29004KT 10SM CLR 07/05 A3038 RMK AO2
KOZS 160635Z AUTO 29005KT 10SM CLR 08/05 A3038 RMK AO2
KOZS 160615Z AUTO 29004KT 10SM CLR 08/05 A3038 RMK AO2
KOZS 160555Z AUTO 29004KT 10SM CLR 08/05 A3037 RMK AO2
KOZS 160535Z AUTO 30004KT 10SM CLR 08/05 A3037 RMK AO2
KOZS 160515Z AUTO 30004KT 10SM CLR 08/05 A3037 RMK AO2
KOZS 160455Z AUTO 29005KT 10SM CLR 08/06 A3037 RMK AO2
KOZS 160435Z AUTO 29004KT 10SM CLR 09/06 A3037 RMK AO2
KOZS 160415Z AUTO 29004KT 10SM CLR 09/06 A3037 RMK AO2
KOZS 160355Z AUTO 28004KT 10SM CLR 09/06 A3036 RMK AO2
KOZS 160335Z AUTO 28005KT 10SM CLR 09/06 A3036 RMK AO2
KOZS 160315Z AUTO 28004KT 10SM CLR 10/06 A3036 RMK AO2
KOZS 160255Z AUTO 27004KT 10SM CLR 10/06 A3036 RMK AO2
KOZS 160235Z AUTO 27003KT 10SM CLR 09/06 A3035 RMK AO2
KOZS 160215Z AUTO 26003KT 10SM CLR 10/06 A3035 RMK AO2
KOZS 160155Z AUTO 00000KT 10SM CLR 11/05 A3034 RMK AO2
KOZS 160135Z AUTO 29003KT 10SM CLR 10/06 A3034 RMK AO2
KOZS 160115Z AUTO 30005KT 10SM CLR 11/06 A3034 RMK AO2
KOZS 160055Z AUTO 30006KT 10SM CLR 11/05 A3033 RMK AO2
KOZS 160035Z AUTO 30004KT 10SM CLR 11/05 A3032 RMK AO2
KOZS 160015Z AUTO 30005KT 10SM CLR 11/05 A3032 RMK AO2
KOZS 152355Z AUTO 31005KT 10SM CLR 11/05 A3031 RMK AO2
KOZS 152335Z AUTO 30005KT 10SM CLR 12/05 A3031 RMK AO2
KOZS 152315Z AUTO 30007KT 10SM CLR 13/05 A3030 RMK AO2
KOZS 152255Z AUTO 31006KT 10SM CLR 14/05 A3029 RMK AO2
KOZS 152235Z AUTO 31007KT 10SM CLR 15/05 A3029 RMK AO2
KOZS 152215Z AUTO 30007G11KT 10SM SCT044 15/05 A3029 RMK AO2
KOZS 152155Z AUTO 30011G14KT 10SM SCT044 15/05 A3030 RMK AO2
KOZS 152135Z AUTO 29011KT 10SM CLR 15/05 A3029 RMK AO2
KOZS 152115Z AUTO 29010KT 10SM CLR 15/05 A3029 RMK AO2
KOZS 152055Z AUTO 30012KT 10SM CLR 16/05 A3029 RMK AO2
KOZS 152035Z AUTO 30012G15KT 10SM SCT038 15/05 A3029 RMK AO2
KOZS 152015Z AUTO 30009G15KT 10SM SCT038 15/06 A3029 RMK AO2
KOZS 151955Z AUTO 31012G17KT 10SM SCT036 15/06 A3029 RMK AO2